createdAt,value
2022-09-05T00:02:35.321Z,24.37
2022-09-05T00:07:59.391Z,24.34
2022-09-05T00:13:07.402Z,24.32
2022-09-05T00:24:17.619Z,24.32
2022-09-05T00:24:28.313Z,24.29
2022-09-05T00:31:05.803Z,24.26
2022-09-05T00:35:26.202Z,24.22
2022-09-05T00:40:33.561Z,24.20
2022-09-05T00:45:37.941Z,24.22
2022-09-05T00:50:51.673Z,24.22
2022-09-05T00:56:00.833Z,24.20
2022-09-05T01:01:19.745Z,24.20
2022-09-05T01:06:30.351Z,24.17
2022-09-05T01:11:40.501Z,24.12
2022-09-05T01:17:01.720Z,24.14
2022-09-05T01:22:22.887Z,24.09
2022-09-05T01:28:43.550Z,24.13
2022-09-05T01:33:08.731Z,24.11
2022-09-05T01:38:14.154Z,24.08
2022-09-05T01:43:23.570Z,24.08
2022-09-05T01:48:32.153Z,24.06
2022-09-05T01:53:39.389Z,24.08
2022-09-05T01:58:55.030Z,24.07
2022-09-05T02:04:08.919Z,24.06
2022-09-05T02:09:18.789Z,24.04
2022-09-05T02:14:34.094Z,24.03
2022-09-05T02:19:43.106Z,24.03
2022-09-05T02:24:46.492Z,24.01
2022-09-05T02:29:57.713Z,24.02
2022-09-05T02:35:02.521Z,24.01
2022-09-05T02:45:00.420Z,24.00
2022-09-05T02:45:39.108Z,24.00
2022-09-05T02:53:57.800Z,24.00
2022-09-05T02:57:40.246Z,23.94
2022-09-05T03:01:59.159Z,23.97
2022-09-05T03:07:18.919Z,23.93
2022-09-05T03:12:55.741Z,23.93
2022-09-05T03:18:34.946Z,23.92
2022-09-05T03:24:14.036Z,23.88
2022-09-05T03:29:46.913Z,23.88
2022-09-05T03:35:08.275Z,23.83
2022-09-05T03:40:42.063Z,23.85
2022-09-05T03:46:00.299Z,23.85
2022-09-05T03:57:01.782Z,23.83
2022-09-05T03:57:27.820Z,23.82
2022-09-05T04:07:53.185Z,23.79
2022-09-05T04:08:24.412Z,23.78
2022-09-05T04:13:17.584Z,23.77
2022-09-05T04:18:33.106Z,23.71
2022-09-05T04:23:45.810Z,23.74
2022-09-05T04:28:54.587Z,23.75
2022-09-05T04:34:03.725Z,23.75
2022-09-05T04:39:08.308Z,23.79
2022-09-05T04:44:12.917Z,23.65
2022-09-05T04:49:17.735Z,23.62
2022-09-05T04:54:30.112Z,23.62
2022-09-05T05:03:42.451Z,23.58
2022-09-05T05:06:17.107Z,23.54
2022-09-05T05:14:09.271Z,23.56
2022-09-05T05:18:08.289Z,23.54
2022-09-05T05:21:21.535Z,23.53
2022-09-05T05:26:25.810Z,23.50
2022-09-05T05:31:30.290Z,23.50
2022-09-05T05:36:36.328Z,23.54
2022-09-05T05:41:41.602Z,23.53
2022-09-05T05:46:46.831Z,23.52
2022-09-05T05:52:01.187Z,23.49
2022-09-05T05:57:33.081Z,23.50
2022-09-05T06:03:25.571Z,23.49
2022-09-05T06:14:50.078Z,23.55
2022-09-05T06:15:13.349Z,23.51
2022-09-05T06:22:06.423Z,23.12
2022-09-05T06:26:19.449Z,22.75
2022-09-05T06:31:48.146Z,22.67
2022-09-05T06:36:53.202Z,22.51
2022-09-05T06:42:10.084Z,22.29
2022-09-05T06:47:34.045Z,22.09
2022-09-05T06:53:13.924Z,21.99
2022-09-05T06:58:50.489Z,21.95
2022-09-05T07:04:33.242Z,22.03
2022-09-05T07:09:36.269Z,22.11
2022-09-05T07:14:42.260Z,22.24
2022-09-05T07:19:49.888Z,22.26
2022-09-05T07:24:54.637Z,22.24
2022-09-05T07:30:01.200Z,22.30
2022-09-05T07:35:07.404Z,22.35
2022-09-05T07:40:26.410Z,22.49
2022-09-05T07:45:30.453Z,22.58
2022-09-05T07:56:41.217Z,22.60
2022-09-05T07:57:06.381Z,22.62
2022-09-05T08:01:22.528Z,22.69
2022-09-05T08:07:42.372Z,22.60
2022-09-05T08:11:49.595Z,22.71
2022-09-05T08:16:55.540Z,22.70
2022-09-05T08:21:59.925Z,22.76
2022-09-05T08:27:04.065Z,22.75
2022-09-05T08:32:08.952Z,22.89
2022-09-05T08:37:15.132Z,22.85
2022-09-05T08:42:27.964Z,22.79
2022-09-05T08:47:35.454Z,22.78
2022-09-05T08:52:57.502Z,22.83
2022-09-05T08:58:04.778Z,22.81
2022-09-05T09:03:13.937Z,22.76
2022-09-05T09:08:22.249Z,22.94
2022-09-05T09:13:36.728Z,22.99
2022-09-05T09:19:02.909Z,23.02
2022-09-05T09:24:15.060Z,23.12
2022-09-05T09:29:18.343Z,23.19
2022-09-05T09:35:21.323Z,23.36
2022-09-05T09:40:24.312Z,23.45
2022-09-05T09:45:33.327Z,23.48
2022-09-05T09:50:53.530Z,23.60
2022-09-05T09:56:55.671Z,23.62
2022-09-05T10:02:34.208Z,23.62
2022-09-05T10:10:53.338Z,23.61
2022-09-05T10:13:35.614Z,23.70
2022-09-05T10:18:45.820Z,23.80
2022-09-05T10:24:12.955Z,23.80
2022-09-05T10:29:38.921Z,23.84
2022-09-05T10:35:17.458Z,23.92
2022-09-05T10:40:11.037Z,24.03
2022-09-05T10:45:15.800Z,24.11
2022-09-05T10:50:27.389Z,24.09
2022-09-05T10:55:33.479Z,24.13
2022-09-05T11:02:23.991Z,24.25
2022-09-05T11:06:29.488Z,24.37
2022-09-05T11:11:34.600Z,24.26
2022-09-05T11:16:39.207Z,24.27
2022-09-05T11:21:48.655Z,24.34
2022-09-05T11:27:24.810Z,24.37
2022-09-05T11:39:53.197Z,24.52
2022-09-05T11:40:02.338Z,24.50
2022-09-05T11:44:25.995Z,24.56
2022-09-05T11:49:42.329Z,24.61
2022-09-05T11:54:57.731Z,24.58
2022-09-05T12:00:33.575Z,24.55
2022-09-05T12:06:06.197Z,24.81
2022-09-05T12:11:21.455Z,24.79
2022-09-05T12:16:40.840Z,24.89
2022-09-05T12:22:16.179Z,24.96
2022-09-05T12:27:39.634Z,24.90
2022-09-05T12:35:42.064Z,25.02
2022-09-05T12:41:32.666Z,24.97
2022-09-05T12:44:41.591Z,25.01
2022-09-05T12:49:52.460Z,25.02
2022-09-05T12:54:59.311Z,25.09
2022-09-05T13:03:04.485Z,25.11
2022-09-05T13:05:46.329Z,25.13
2022-09-05T13:14:48.383Z,25.19
2022-09-05T13:16:23.179Z,25.26
2022-09-05T13:21:28.101Z,25.40
2022-09-05T13:26:36.178Z,25.39
2022-09-05T13:38:00.715Z,25.51
2022-09-05T13:38:12.079Z,25.34
2022-09-05T13:42:58.890Z,25.31
2022-09-05T13:49:24.078Z,25.25
2022-09-05T13:54:06.686Z,25.21
2022-09-05T13:59:10.120Z,25.20
2022-09-05T14:10:09.169Z,25.28
2022-09-05T14:15:19.138Z,25.02
2022-09-05T14:20:49.791Z,25.05
2022-09-05T14:25:56.230Z,25.06
2022-09-05T14:37:44.832Z,25.11
2022-09-05T14:37:45.869Z,25.09
2022-09-05T14:42:12.349Z,25.09
2022-09-05T14:47:34.933Z,25.06
2022-09-05T14:52:43.806Z,25.10
2022-09-05T15:02:39.034Z,25.12
2022-09-05T15:03:12.428Z,25.09
2022-09-05T15:09:04.367Z,25.05
2022-09-05T15:14:01.409Z,25.06
2022-09-05T15:19:04.135Z,25.08
2022-09-05T15:24:22.786Z,25.18
2022-09-05T15:29:27.972Z,25.14
2022-09-05T15:34:33.423Z,25.17
2022-09-05T15:39:36.148Z,25.15
2022-09-05T15:45:06.351Z,25.15
2022-09-05T15:50:04.714Z,25.15
2022-09-05T15:55:11.886Z,25.16
2022-09-05T16:00:39.682Z,25.14
2022-09-05T16:10:28.829Z,25.12
2022-09-05T16:12:06.412Z,25.14
2022-09-05T16:23:20.839Z,25.24
2022-09-05T16:23:35.085Z,25.30
2022-09-05T16:27:51.882Z,25.25
2022-09-05T16:33:00.413Z,25.29
2022-09-05T16:38:09.536Z,25.27
2022-09-05T16:43:16.797Z,25.24
2022-09-05T16:48:40.169Z,25.22
2022-09-05T16:53:46.200Z,25.20
2022-09-05T16:59:02.905Z,25.22
2022-09-05T17:04:09.739Z,25.23
2022-09-05T17:09:23.222Z,25.25
2022-09-05T17:14:26.169Z,25.24
2022-09-05T17:19:33.790Z,25.32
2022-09-05T17:29:32.961Z,25.34
2022-09-05T17:35:43.191Z,25.39
2022-09-05T17:41:22.214Z,25.40
2022-09-05T17:46:26.350Z,25.37
2022-09-05T17:52:08.017Z,25.43
2022-09-05T17:57:42.027Z,25.55
2022-09-05T18:02:54.002Z,25.57
2022-09-05T18:07:59.013Z,25.63
2022-09-05T18:13:32.353Z,25.56
2022-09-05T18:19:28.584Z,25.67
2022-09-05T18:24:02.210Z,25.67
2022-09-05T18:29:06.400Z,25.55
2022-09-05T18:34:43.208Z,25.54
2022-09-05T18:39:47.557Z,25.47
2022-09-05T18:44:55.326Z,25.48
2022-09-05T18:50:26.328Z,25.49
2022-09-05T18:56:11.461Z,25.52
2022-09-05T19:00:51.047Z,25.54
2022-09-05T19:05:55.845Z,25.53
2022-09-05T19:11:28.519Z,25.59
2022-09-05T19:16:43.629Z,25.58
2022-09-05T19:22:10.419Z,25.56
2022-09-05T19:28:13.958Z,25.58
2022-09-05T19:36:46.285Z,25.57
2022-09-05T19:38:04.721Z,25.59
2022-09-05T19:47:44.516Z,25.62
2022-09-05T19:48:34.617Z,25.66
2022-09-05T19:53:46.241Z,25.65
2022-09-05T19:58:50.432Z,25.63
2022-09-05T20:03:53.748Z,25.64
2022-09-05T20:08:56.730Z,25.63
2022-09-05T20:14:19.007Z,25.69
2022-09-05T20:19:28.813Z,25.67
2022-09-05T20:24:31.827Z,25.68
2022-09-05T20:29:54.022Z,25.70
2022-09-05T20:38:26.378Z,25.68
2022-09-05T20:43:36.545Z,25.69
2022-09-05T20:45:45.569Z,25.73
2022-09-05T20:54:15.607Z,25.71
2022-09-05T20:56:23.482Z,25.72
2022-09-05T21:01:29.546Z,25.66
2022-09-05T21:06:33.667Z,25.68
2022-09-05T21:11:36.985Z,25.67
2022-09-05T21:16:45.572Z,25.69
2022-09-05T21:22:02.111Z,25.68
2022-09-05T21:27:16.256Z,25.66
2022-09-05T21:32:20.607Z,25.65
2022-09-05T21:37:23.337Z,25.69
2022-09-05T21:44:29.494Z,25.69
2022-09-05T21:47:53.128Z,25.64
2022-09-05T21:54:08.871Z,25.60
2022-09-05T21:59:27.321Z,25.63
2022-09-05T22:03:43.748Z,25.62
2022-09-05T22:09:06.613Z,25.59
2022-09-05T22:14:09.309Z,25.59
2022-09-05T22:19:17.678Z,25.54
2022-09-05T22:24:20.350Z,25.44
2022-09-05T22:29:24.892Z,25.44
2022-09-05T22:34:28.960Z,25.38
2022-09-05T22:39:37.848Z,25.27
2022-09-05T22:44:41.014Z,25.24
2022-09-05T22:49:45.010Z,25.23
2022-09-05T22:54:47.714Z,25.18
2022-09-05T22:59:51.268Z,25.15
2022-09-05T23:04:55.299Z,25.13
2022-09-05T23:09:58.161Z,25.06
2022-09-05T23:15:00.778Z,25.09
2022-09-05T23:20:05.658Z,24.97
2022-09-05T23:25:08.874Z,24.98
2022-09-05T23:30:12.162Z,24.90
2022-09-05T23:35:16.398Z,24.90
2022-09-05T23:40:21.946Z,24.86
2022-09-05T23:45:24.859Z,24.76
2022-09-05T23:50:29.069Z,24.78
2022-09-05T23:55:32.721Z,24.70
